Time;durP1;ratioP1;P1;durP2;ratioP2;P2;SDS_P1;SDS_P2;PMS_P1;PMS_P2;Temp;Humidity;BMP_temperature;BMP_pressure;BME280_temperature;BME280_humidity;BME280_pressure;Samples;Min_cycle;Max_cycle;Signal;HPM_P1;HPM_P2
2021/05/30 00:00:01;;;;;;;6.63;2.42;;;;;;;;;;5026080;28;20055;-77
2021/05/30 00:05:19;;;;;;;7.00;2.30;;;;;;;;;;5025622;28;20087;-79
2021/05/30 00:07:48;;;;;;;7.28;2.03;;;;;;;;;;5025995;28;20433;-78
2021/05/30 00:10:14;;;;;;;9.63;2.80;;;;;;;;;;5015455;28;20589;-78
2021/05/30 00:12:41;;;;;;;7.78;2.33;;;;;;;;;;5027595;28;20029;-77
2021/05/30 00:15:13;;;;;;;8.35;2.25;;;;;;;;;;5028780;28;20036;-80
2021/05/30 00:17:40;;;;;;;7.07;2.00;;;;;;;;;;5025378;28;20037;-79
2021/05/30 00:20:10;;;;;;;6.75;2.35;;;;;;;;;;5026432;28;20135;-78
2021/05/30 00:22:36;;;;;;;7.28;2.15;;;;;;;;;;5016309;28;20036;-78
2021/05/30 00:25:05;;;;;;;7.68;1.88;;;;;;;;;;5027771;28;20665;-78
2021/05/30 00:27:35;;;;;;;7.53;1.92;;;;;;;;;;5020863;28;20085;-79
2021/05/30 00:30:04;;;;;;;9.48;3.13;;;;;;;;;;5031968;28;20032;-79
2021/05/30 00:32:30;;;;;;;9.43;2.90;;;;;;;;;;5019995;28;20045;-79
2021/05/30 00:34:58;;;;;;;9.13;3.50;;;;;;;;;;5029753;28;20029;-79
2021/05/30 00:37:25;;;;;;;9.68;3.33;;;;;;;;;;5000526;28;20102;-78
2021/05/30 00:39:52;;;;;;;8.30;2.38;;;;;;;;;;5026772;28;20029;-78
2021/05/30 00:42:19;;;;;;;10.65;4.40;;;;;;;;;;5002921;28;20045;-77
2021/05/30 00:44:45;;;;;;;13.55;4.35;;;;;;;;;;5030667;28;20032;-78
2021/05/30 00:47:11;;;;;;;15.50;4.20;;;;;;;;;;5023985;28;20028;-78
2021/05/30 00:49:39;;;;;;;16.52;5.28;;;;;;;;;;5030061;28;20024;-80
2021/05/30 00:52:06;;;;;;;12.43;4.40;;;;;;;;;;5025334;28;20041;-78
2021/05/30 00:54:37;;;;;;;12.65;5.20;;;;;;;;;;5023240;28;20029;-77
2021/05/30 00:57:07;;;;;;;11.95;4.00;;;;;;;;;;5022472;28;20053;-79
2021/05/30 00:59:35;;;;;;;8.85;2.97;;;;;;;;;;5024943;28;20120;-78
2021/05/30 01:02:03;;;;;;;10.32;4.13;;;;;;;;;;5028392;28;20125;-79
2021/05/30 01:04:29;;;;;;;8.77;3.25;;;;;;;;;;5023777;28;20529;-79
2021/05/30 01:06:58;;;;;;;10.48;3.30;;;;;;;;;;5027581;28;20025;-77
2021/05/30 01:09:27;;;;;;;9.68;3.67;;;;;;;;;;5018859;28;20064;-78
2021/05/30 01:11:56;;;;;;;8.77;2.38;;;;;;;;;;5023636;28;20036;-77
2021/05/30 01:14:24;;;;;;;8.23;2.85;;;;;;;;;;5024070;28;20036;-78
2021/05/30 01:16:51;;;;;;;7.82;2.53;;;;;;;;;;5026765;28;20091;-78
2021/05/30 01:19:20;;;;;;;8.20;3.17;;;;;;;;;;5023841;28;20178;-78
2021/05/30 01:21:48;;;;;;;7.90;2.78;;;;;;;;;;5028947;28;20039;-78
2021/05/30 01:24:15;;;;;;;7.13;2.22;;;;;;;;;;5023251;28;20737;-77
2021/05/30 01:26:45;;;;;;;9.65;2.60;;;;;;;;;;5029074;28;20013;-77
2021/05/30 01:29:14;;;;;;;8.65;3.22;;;;;;;;;;5018333;28;20041;-78
2021/05/30 01:31:40;;;;;;;9.00;2.60;;;;;;;;;;5032753;28;20033;-77
2021/05/30 01:34:08;;;;;;;7.43;2.63;;;;;;;;;;5025708;28;20915;-78
2021/05/30 01:36:35;;;;;;;12.98;2.95;;;;;;;;;;5024120;28;20107;-77
2021/05/30 01:39:01;;;;;;;7.95;2.88;;;;;;;;;;5022997;28;20044;-78
2021/05/30 01:41:29;;;;;;;9.45;2.35;;;;;;;;;;5024497;28;20717;-77
2021/05/30 01:43:56;;;;;;;6.95;2.50;;;;;;;;;;5026139;28;20021;-77
2021/05/30 01:46:24;;;;;;;8.73;3.00;;;;;;;;;;5023340;28;20017;-77
2021/05/30 01:48:52;;;;;;;8.27;2.55;;;;;;;;;;5021803;28;20520;-77
2021/05/30 01:51:19;;;;;;;6.32;2.20;;;;;;;;;;5008486;28;20123;-77
2021/05/30 01:53:53;;;;;;;7.00;2.10;;;;;;;;;;5020416;28;20061;-79
2021/05/30 01:59:08;;;;;;;7.40;2.38;;;;;;;;;;5028110;28;20043;-79
2021/05/30 02:01:36;;;;;;;8.88;2.53;;;;;;;;;;5023655;28;20594;-79
2021/05/30 02:04:02;;;;;;;9.35;2.83;;;;;;;;;;5026435;28;20033;-78
2021/05/30 02:06:31;;;;;;;8.35;2.42;;;;;;;;;;5024039;28;20025;-79
2021/05/30 02:08:59;;;;;;;5.53;1.83;;;;;;;;;;5026778;28;20164;-79
2021/05/30 02:11:26;;;;;;;7.88;2.67;;;;;;;;;;5017498;28;20130;-79
2021/05/30 02:14:14;;;;;;;7.55;2.53;;;;;;;;;;5008597;28;20216;-79
2021/05/30 02:16:42;;;;;;;8.77;2.40;;;;;;;;;;5004247;28;20047;-79
2021/05/30 02:19:10;;;;;;;8.43;2.42;;;;;;;;;;5019548;28;20041;-79
2021/05/30 02:21:42;;;;;;;8.00;2.42;;;;;;;;;;5011829;28;20266;-79
2021/05/30 02:24:09;;;;;;;6.93;2.45;;;;;;;;;;4999981;28;20040;-79
2021/05/30 02:26:37;;;;;;;7.10;2.83;;;;;;;;;;5005402;28;20462;-79
2021/05/30 02:29:06;;;;;;;9.00;2.78;;;;;;;;;;5007320;28;20063;-77
2021/05/30 02:31:32;;;;;;;8.32;2.50;;;;;;;;;;5004962;28;20330;-78
2021/05/30 02:34:00;;;;;;;7.18;2.20;;;;;;;;;;5005594;28;20124;-78
2021/05/30 02:36:27;;;;;;;7.97;2.63;;;;;;;;;;5004474;28;20124;-78
2021/05/30 02:38:56;;;;;;;7.32;2.10;;;;;;;;;;5014352;28;20128;-78
2021/05/30 02:41:24;;;;;;;8.45;2.10;;;;;;;;;;5001602;28;20051;-80
2021/05/30 02:43:52;;;;;;;7.40;2.10;;;;;;;;;;5024769;28;20040;-79
2021/05/30 02:46:20;;;;;;;7.70;2.20;;;;;;;;;;4999442;28;20650;-80
2021/05/30 02:48:48;;;;;;;7.72;2.33;;;;;;;;;;5024599;28;20550;-79
2021/05/30 02:51:15;;;;;;;6.18;2.03;;;;;;;;;;5005183;28;20469;-80
2021/05/30 02:53:43;;;;;;;6.20;2.25;;;;;;;;;;5023497;28;20041;-78
2021/05/30 02:56:11;;;;;;;8.50;2.45;;;;;;;;;;5021726;28;20082;-79
2021/05/30 02:58:37;;;;;;;7.40;2.25;;;;;;;;;;5023383;28;20060;-78
2021/05/30 03:01:04;;;;;;;8.30;2.10;;;;;;;;;;5026123;28;20430;-78
2021/05/30 03:03:31;;;;;;;6.88;2.20;;;;;;;;;;5003473;28;20120;-78
2021/05/30 03:06:01;;;;;;;7.43;2.15;;;;;;;;;;5004423;28;20030;-77
2021/05/30 03:08:28;;;;;;;7.38;1.92;;;;;;;;;;5017703;28;22797;-78
2021/05/30 03:10:55;;;;;;;7.93;1.90;;;;;;;;;;5006865;28;20034;-77
2021/05/30 03:13:23;;;;;;;7.88;2.03;;;;;;;;;;5013818;28;20030;-78
2021/05/30 03:15:50;;;;;;;7.55;2.10;;;;;;;;;;5019443;28;20037;-78
2021/05/30 03:18:16;;;;;;;7.55;1.85;;;;;;;;;;5017087;28;20033;-78
2021/05/30 03:20:44;;;;;;;6.93;2.10;;;;;;;;;;5020688;28;20224;-78
2021/05/30 03:23:12;;;;;;;7.97;2.47;;;;;;;;;;5007303;28;20052;-79
2021/05/30 03:25:40;;;;;;;7.72;2.03;;;;;;;;;;5025871;28;20032;-79
2021/05/30 03:28:07;;;;;;;7.30;1.92;;;;;;;;;;5014577;28;20206;-80
2021/05/30 03:30:35;;;;;;;5.53;1.90;;;;;;;;;;5001017;28;20041;-79
2021/05/30 03:33:02;;;;;;;6.63;2.08;;;;;;;;;;5021531;28;20875;-80
2021/05/30 03:35:29;;;;;;;5.85;1.90;;;;;;;;;;4996532;28;20114;-78
2021/05/30 03:37:58;;;;;;;5.97;2.00;;;;;;;;;;5020739;28;20037;-78
2021/05/30 03:40:29;;;;;;;6.15;1.90;;;;;;;;;;5018284;28;20028;-77
2021/05/30 03:42:56;;;;;;;6.03;1.80;;;;;;;;;;5021597;28;20040;-78
2021/05/30 03:45:23;;;;;;;5.93;1.90;;;;;;;;;;5017859;28;20041;-77
2021/05/30 03:47:52;;;;;;;7.72;1.90;;;;;;;;;;5004253;28;20025;-81
2021/05/30 03:50:20;;;;;;;5.55;1.75;;;;;;;;;;5020666;28;20033;-78
2021/05/30 03:52:47;;;;;;;7.78;1.80;;;;;;;;;;5021117;28;20091;-77
2021/05/30 03:55:14;;;;;;;5.88;1.50;;;;;;;;;;5021112;28;20020;-78
2021/05/30 03:57:42;;;;;;;5.47;2.03;;;;;;;;;;5008417;28;20056;-79
2021/05/30 04:00:09;;;;;;;6.63;1.77;;;;;;;;;;5024773;28;20025;-79
2021/05/30 04:02:36;;;;;;;5.78;1.95;;;;;;;;;;5021262;28;20060;-78
2021/05/30 04:05:04;;;;;;;7.68;2.00;;;;;;;;;;5021684;28;20553;-80
2021/05/30 04:07:32;;;;;;;5.60;1.58;;;;;;;;;;5019975;28;20024;-77
2021/05/30 04:10:06;;;;;;;4.85;1.55;;;;;;;;;;5021269;28;20539;-80
2021/05/30 04:12:34;;;;;;;7.00;2.13;;;;;;;;;;5011171;28;20117;-79
2021/05/30 04:15:00;;;;;;;6.32;2.00;;;;;;;;;;5023835;28;20060;-78
2021/05/30 04:17:27;;;;;;;6.68;1.98;;;;;;;;;;5007923;28;20028;-79
2021/05/30 04:19:54;;;;;;;6.60;1.70;;;;;;;;;;5011405;28;20071;-78
2021/05/30 04:22:22;;;;;;;6.60;1.90;;;;;;;;;;5026632;28;20111;-79
2021/05/30 04:24:50;;;;;;;11.23;1.90;;;;;;;;;;5007487;28;20045;-79
2021/05/30 04:27:17;;;;;;;6.68;1.83;;;;;;;;;;5008746;28;20072;-79
2021/05/30 04:29:45;;;;;;;6.05;1.80;;;;;;;;;;5030476;28;20691;-79
2021/05/30 04:32:11;;;;;;;6.38;1.80;;;;;;;;;;5021598;28;20140;-80
2021/05/30 04:34:38;;;;;;;7.93;2.00;;;;;;;;;;5011125;28;20029;-79
2021/05/30 04:37:06;;;;;;;6.40;1.73;;;;;;;;;;5020999;28;20125;-78
2021/05/30 04:39:33;;;;;;;6.50;1.98;;;;;;;;;;5026611;28;20044;-77
2021/05/30 04:42:02;;;;;;;7.90;1.60;;;;;;;;;;5008258;28;20029;-78
2021/05/30 04:44:30;;;;;;;6.55;1.60;;;;;;;;;;5013102;28;20033;-78
2021/05/30 04:46:58;;;;;;;7.85;2.15;;;;;;;;;;5014347;28;20178;-78
2021/05/30 04:49:25;;;;;;;8.88;2.22;;;;;;;;;;5003591;28;20625;-79
2021/05/30 04:51:52;;;;;;;5.97;1.90;;;;;;;;;;5008636;28;20025;-79
2021/05/30 04:54:18;;;;;;;6.60;1.88;;;;;;;;;;5001260;28;20053;-79
2021/05/30 04:56:46;;;;;;;6.00;1.90;;;;;;;;;;5028301;28;20555;-78
2021/05/30 04:59:13;;;;;;;8.27;2.20;;;;;;;;;;5017301;28;20052;-79
2021/05/30 05:01:40;;;;;;;7.60;2.08;;;;;;;;;;5026170;28;20029;-79
2021/05/30 05:04:08;;;;;;;6.95;1.88;;;;;;;;;;5008883;28;20589;-79
2021/05/30 05:06:34;;;;;;;7.38;1.95;;;;;;;;;;5006195;28;20029;-79
2021/05/30 05:09:02;;;;;;;7.03;2.08;;;;;;;;;;5013725;28;20087;-78
2021/05/30 05:11:28;;;;;;;7.07;1.98;;;;;;;;;;5019616;28;20638;-78
2021/05/30 05:13:58;;;;;;;9.00;2.75;;;;;;;;;;5018294;28;20032;-79
2021/05/30 05:16:27;;;;;;;8.73;1.92;;;;;;;;;;5005893;28;20032;-79
2021/05/30 05:18:53;;;;;;;6.20;2.03;;;;;;;;;;5025258;28;20025;-79
2021/05/30 05:21:21;;;;;;;8.35;2.20;;;;;;;;;;4998080;28;20036;-79
2021/05/30 05:23:48;;;;;;;6.88;1.83;;;;;;;;;;5020060;28;20044;-79
2021/05/30 05:26:15;;;;;;;6.10;2.30;;;;;;;;;;5023460;28;20032;-79
2021/05/30 05:28:41;;;;;;;8.20;2.70;;;;;;;;;;5027093;28;20623;-79
2021/05/30 05:31:07;;;;;;;8.48;2.50;;;;;;;;;;5028812;28;20167;-80
2021/05/30 05:33:35;;;;;;;9.05;2.97;;;;;;;;;;5024771;28;20036;-79
2021/05/30 05:36:03;;;;;;;9.20;2.80;;;;;;;;;;5028624;28;20035;-79
2021/05/30 05:38:30;;;;;;;8.80;2.78;;;;;;;;;;5024719;28;20036;-79
2021/05/30 05:40:58;;;;;;;8.05;2.72;;;;;;;;;;5033934;28;20119;-78
2021/05/30 05:43:25;;;;;;;8.55;2.75;;;;;;;;;;5027854;28;20701;-77
2021/05/30 05:46:18;;;;;;;10.13;2.92;;;;;;;;;;5029340;28;20036;-78
2021/05/30 05:48:46;;;;;;;10.90;2.53;;;;;;;;;;5024111;28;20039;-78
2021/05/30 05:51:14;;;;;;;10.63;2.50;;;;;;;;;;5018943;28;20049;-79
2021/05/30 05:53:41;;;;;;;10.77;3.13;;;;;;;;;;5027234;28;20025;-78
2021/05/30 05:56:07;;;;;;;9.70;2.33;;;;;;;;;;5027689;28;20052;-78
2021/05/30 05:58:35;;;;;;;9.13;2.67;;;;;;;;;;5025825;28;20039;-79
2021/05/30 06:01:01;;;;;;;7.95;2.60;;;;;;;;;;5027427;28;20033;-77
2021/05/30 06:03:27;;;;;;;7.85;2.88;;;;;;;;;;5024007;28;20041;-79
2021/05/30 06:05:55;;;;;;;10.70;2.60;;;;;;;;;;5029744;28;20025;-78
2021/05/30 06:08:22;;;;;;;9.07;2.53;;;;;;;;;;5005518;28;20117;-78
2021/05/30 06:10:50;;;;;;;8.55;2.80;;;;;;;;;;5026114;28;20107;-77
2021/05/30 06:13:17;;;;;;;7.70;2.53;;;;;;;;;;5024022;28;20049;-78
2021/05/30 06:15:46;;;;;;;7.32;2.55;;;;;;;;;;5014448;28;20091;-78
2021/05/30 06:18:13;;;;;;;8.45;2.50;;;;;;;;;;5021192;28;20474;-78
2021/05/30 06:20:43;;;;;;;7.15;1.95;;;;;;;;;;5005690;28;20107;-78
2021/05/30 06:23:12;;;;;;;10.10;2.40;;;;;;;;;;5021407;28;20048;-78
2021/05/30 06:25:39;;;;;;;9.50;2.72;;;;;;;;;;5012247;28;20116;-78
2021/05/30 06:28:06;;;;;;;9.55;2.88;;;;;;;;;;5029195;28;20025;-77
2021/05/30 06:30:36;;;;;;;9.18;2.80;;;;;;;;;;5021995;28;20090;-77
2021/05/30 06:33:05;;;;;;;7.97;2.70;;;;;;;;;;5026352;28;20535;-78
2021/05/30 06:35:33;;;;;;;8.88;3.22;;;;;;;;;;5023989;28;20032;-77
2021/05/30 06:38:01;;;;;;;11.93;4.00;;;;;;;;;;5023916;28;20033;-77
2021/05/30 06:40:27;;;;;;;8.70;3.42;;;;;;;;;;5018580;28;22450;-78
2021/05/30 06:42:58;;;;;;;10.00;3.42;;;;;;;;;;5021467;28;20021;-77
2021/05/30 06:45:24;;;;;;;9.90;2.70;;;;;;;;;;5000844;28;20045;-78
2021/05/30 06:47:52;;;;;;;12.13;2.80;;;;;;;;;;5025708;28;20033;-78
2021/05/30 06:50:21;;;;;;;8.68;2.60;;;;;;;;;;5023046;28;20040;-78
2021/05/30 06:52:48;;;;;;;6.78;2.40;;;;;;;;;;5023542;28;20102;-78
2021/05/30 06:55:14;;;;;;;7.57;1.75;;;;;;;;;;5003838;28;20769;-80
2021/05/30 06:57:43;;;;;;;6.22;2.00;;;;;;;;;;5030815;28;20496;-78
2021/05/30 07:00:10;;;;;;;6.72;1.63;;;;;;;;;;5019072;28;20119;-78
2021/05/30 07:02:36;;;;;;;7.65;1.77;;;;;;;;;;5020507;28;20033;-79
2021/05/30 07:05:02;;;;;;;6.60;1.55;;;;;;;;;;5026447;28;20025;-78
2021/05/30 07:07:29;;;;;;;7.38;1.60;;;;;;;;;;5019870;28;21426;-78
2021/05/30 07:09:57;;;;;;;5.82;1.70;;;;;;;;;;5028033;28;20112;-78
2021/05/30 07:12:24;;;;;;;9.85;1.73;;;;;;;;;;5003501;28;20033;-78
2021/05/30 07:14:51;;;;;;;6.18;2.00;;;;;;;;;;5029645;28;20119;-78
2021/05/30 07:17:19;;;;;;;7.75;1.83;;;;;;;;;;5025905;28;20029;-80
2021/05/30 07:19:47;;;;;;;6.55;1.83;;;;;;;;;;5030378;28;20366;-80
2021/05/30 07:22:14;;;;;;;8.13;1.90;;;;;;;;;;5030191;28;20056;-79
2021/05/30 07:24:42;;;;;;;6.05;1.70;;;;;;;;;;5022703;28;20329;-78
2021/05/30 07:27:09;;;;;;;5.97;1.58;;;;;;;;;;5022922;28;20130;-78
2021/05/30 07:29:36;;;;;;;5.80;1.42;;;;;;;;;;5022881;28;20037;-79
2021/05/30 07:32:04;;;;;;;7.18;1.83;;;;;;;;;;5013624;28;20059;-79
2021/05/30 07:34:31;;;;;;;7.18;1.60;;;;;;;;;;5006018;28;20036;-79
2021/05/30 07:36:57;;;;;;;7.63;1.98;;;;;;;;;;5022673;28;20036;-79
2021/05/30 07:39:24;;;;;;;8.75;1.70;;;;;;;;;;5024280;28;20033;-78
2021/05/30 07:41:53;;;;;;;6.25;1.60;;;;;;;;;;5026436;28;20026;-79
2021/05/30 07:44:21;;;;;;;5.47;1.65;;;;;;;;;;5008559;28;20042;-79
2021/05/30 07:46:49;;;;;;;9.25;2.10;;;;;;;;;;5020192;28;20136;-79
2021/05/30 07:49:16;;;;;;;4.82;1.40;;;;;;;;;;5008297;28;20025;-79
2021/05/30 07:51:44;;;;;;;7.20;1.67;;;;;;;;;;5011014;28;20021;-79
2021/05/30 07:54:12;;;;;;;7.25;1.63;;;;;;;;;;5008883;28;20029;-79
2021/05/30 07:56:40;;;;;;;6.65;1.50;;;;;;;;;;5011107;28;20195;-79
2021/05/30 07:59:08;;;;;;;6.90;1.60;;;;;;;;;;5022507;28;20107;-79
2021/05/30 08:01:35;;;;;;;4.88;1.45;;;;;;;;;;5017321;28;20036;-79
2021/05/30 08:06:57;;;;;;;7.90;1.80;;;;;;;;;;5012582;28;20556;-79
2021/05/30 08:09:23;;;;;;;7.20;1.85;;;;;;;;;;5019014;28;20115;-78
2021/05/30 08:11:53;;;;;;;8.38;1.80;;;;;;;;;;5021011;28;20041;-79
2021/05/30 08:14:21;;;;;;;5.38;1.50;;;;;;;;;;5007351;28;20048;-81
2021/05/30 08:16:47;;;;;;;9.98;2.03;;;;;;;;;;5025630;28;20033;-82
2021/05/30 08:19:17;;;;;;;6.75;1.70;;;;;;;;;;5008652;28;20033;-81
2021/05/30 08:21:44;;;;;;;7.03;1.85;;;;;;;;;;5022391;28;20044;-80
2021/05/30 08:24:12;;;;;;;6.68;1.70;;;;;;;;;;5014206;28;20048;-81
2021/05/30 08:27:04;;;;;;;8.70;1.77;;;;;;;;;;4986954;28;20105;-81
2021/05/30 08:29:30;;;;;;;6.30;1.50;;;;;;;;;;5003258;28;20104;-81
2021/05/30 08:31:59;;;;;;;6.47;1.58;;;;;;;;;;4987502;28;20068;-81
2021/05/30 08:34:28;;;;;;;8.43;3.17;;;;;;;;;;4980430;28;20136;-81
2021/05/30 08:36:59;;;;;;;9.80;3.53;;;;;;;;;;4986450;28;20411;-81
2021/05/30 08:39:27;;;;;;;5.40;1.67;;;;;;;;;;4999173;28;20084;-79
2021/05/30 08:41:53;;;;;;;6.15;1.90;;;;;;;;;;4985004;28;20036;-82
2021/05/30 08:44:19;;;;;;;9.50;3.90;;;;;;;;;;4982689;28;20022;-81
2021/05/30 08:46:47;;;;;;;12.40;4.97;;;;;;;;;;5001115;28;20574;-82
2021/05/30 08:49:15;;;;;;;7.70;2.70;;;;;;;;;;4999730;28;20022;-81
2021/05/30 08:51:45;;;;;;;7.82;1.80;;;;;;;;;;4990009;28;20037;-82
2021/05/30 08:54:14;;;;;;;5.95;1.65;;;;;;;;;;4995212;28;20045;-80
2021/05/30 08:56:43;;;;;;;7.90;2.40;;;;;;;;;;5003508;28;20072;-80
2021/05/30 08:59:19;;;;;;;6.50;1.80;;;;;;;;;;5000288;28;20052;-81
2021/05/30 09:01:47;;;;;;;6.93;2.10;;;;;;;;;;5005920;28;20490;-81
2021/05/30 09:04:14;;;;;;;7.68;2.40;;;;;;;;;;4983302;28;20049;-81
2021/05/30 09:06:42;;;;;;;6.40;1.80;;;;;;;;;;4996807;28;20026;-80
2021/05/30 09:09:14;;;;;;;5.38;1.40;;;;;;;;;;5005465;28;20033;-80
2021/05/30 09:11:48;;;;;;;9.25;2.22;;;;;;;;;;4985314;28;20083;-80
2021/05/30 09:14:24;;;;;;;10.48;4.53;;;;;;;;;;4995480;28;20029;-80
2021/05/30 09:16:59;;;;;;;7.65;2.80;;;;;;;;;;5002437;28;20141;-79
2021/05/30 09:19:44;;;;;;;10.35;6.00;;;;;;;;;;4983514;28;20483;-80
2021/05/30 09:22:30;;;;;;;8.32;2.15;;;;;;;;;;4981126;28;20437;-81
2021/05/30 09:25:07;;;;;;;4.80;1.60;;;;;;;;;;5014656;28;20052;-80
2021/05/30 09:27:35;;;;;;;6.43;1.60;;;;;;;;;;5020892;28;20528;-81
2021/05/30 09:30:23;;;;;;;8.13;1.80;;;;;;;;;;5026960;28;20036;-81
2021/05/30 09:33:02;;;;;;;7.07;2.13;;;;;;;;;;5027146;28;20132;-81
2021/05/30 09:35:37;;;;;;;11.82;6.28;;;;;;;;;;5024724;28;20033;-81
2021/05/30 09:38:06;;;;;;;30.02;21.33;;;;;;;;;;5005215;28;20036;-81
2021/05/30 09:40:44;;;;;;;23.30;16.13;;;;;;;;;;5027071;28;20043;-81
2021/05/30 09:43:12;;;;;;;14.05;7.63;;;;;;;;;;5026568;28;20033;-80
2021/05/30 09:45:43;;;;;;;15.23;8.48;;;;;;;;;;5024293;28;20025;-82
2021/05/30 09:48:21;;;;;;;6.15;1.70;;;;;;;;;;5023129;28;20037;-81
2021/05/30 09:51:08;;;;;;;12.90;6.13;;;;;;;;;;5019325;28;20141;-81
2021/05/30 09:53:55;;;;;;;7.32;2.20;;;;;;;;;;5022529;28;20040;-81
2021/05/30 09:56:26;;;;;;;7.47;2.47;;;;;;;;;;5010438;28;20052;-80
2021/05/30 09:58:53;;;;;;;5.60;1.60;;;;;;;;;;5022618;28;20028;-80
2021/05/30 10:01:19;;;;;;;5.72;1.85;;;;;;;;;;5027972;28;20033;-80
2021/05/30 10:03:48;;;;;;;6.10;1.65;;;;;;;;;;5022718;28;20040;-82
2021/05/30 10:12:04;;;;;;;5.50;1.65;;;;;;;;;;5025293;28;20142;-81
2021/05/30 10:14:31;;;;;;;8.65;2.22;;;;;;;;;;5022178;28;20031;-80
2021/05/30 10:16:58;;;;;;;5.78;1.60;;;;;;;;;;5022654;28;21255;-81
2021/05/30 10:19:52;;;;;;;5.85;1.77;;;;;;;;;;5006983;28;20032;-83
2021/05/30 10:22:19;;;;;;;6.32;1.90;;;;;;;;;;5006424;28;20036;-82
2021/05/30 10:24:48;;;;;;;7.10;2.45;;;;;;;;;;5023864;28;20148;-81
2021/05/30 10:27:20;;;;;;;6.22;1.98;;;;;;;;;;5008983;28;20025;-81
2021/05/30 10:30:06;;;;;;;6.47;2.03;;;;;;;;;;5028175;28;20021;-81
2021/05/30 10:32:34;;;;;;;6.38;2.00;;;;;;;;;;5028056;28;20029;-83
2021/05/30 10:35:10;;;;;;;11.20;4.25;;;;;;;;;;5007131;28;20037;-82
2021/05/30 10:37:41;;;;;;;10.05;2.88;;;;;;;;;;5026925;28;20031;-83
2021/05/30 10:40:24;;;;;;;6.07;2.08;;;;;;;;;;5008314;28;20031;-81
2021/05/30 10:46:01;;;;;;;64.22;51.92;;;;;;;;;;5041292;28;20059;-86
2021/05/30 10:48:31;;;;;;;43.28;31.98;;;;;;;;;;5034588;28;20028;-86
2021/05/30 10:51:23;;;;;;;31.05;22.58;;;;;;;;;;5039776;28;20063;-88
2021/05/30 10:53:52;;;;;;;21.30;14.68;;;;;;;;;;5041982;28;20136;-87
2021/05/30 10:56:19;;;;;;;20.10;12.88;;;;;;;;;;5034498;28;20051;-86
2021/05/30 10:59:04;;;;;;;14.30;8.10;;;;;;;;;;5029069;28;20532;-81
2021/05/30 11:04:28;;;;;;;14.60;7.40;;;;;;;;;;5030536;28;20037;-82
2021/05/30 11:07:00;;;;;;;15.18;8.68;;;;;;;;;;5027649;28;20021;-81
2021/05/30 11:09:53;;;;;;;18.05;10.43;;;;;;;;;;5026596;28;20044;-82
2021/05/30 11:12:20;;;;;;;20.48;11.60;;;;;;;;;;5036483;28;20577;-85
2021/05/30 11:15:06;;;;;;;23.27;15.00;;;;;;;;;;5038113;28;20032;-85
2021/05/30 11:17:42;;;;;;;10.82;4.60;;;;;;;;;;5034669;28;20032;-86
2021/05/30 11:20:09;;;;;;;19.60;9.65;;;;;;;;;;5031597;28;20035;-86
2021/05/30 11:22:50;;;;;;;10.10;4.78;;;;;;;;;;5036893;28;20033;-88
2021/05/30 11:25:17;;;;;;;11.80;5.95;;;;;;;;;;5034099;28;20120;-86
2021/05/30 11:28:04;;;;;;;15.68;9.07;;;;;;;;;;5036917;28;20059;-86
2021/05/30 11:30:40;;;;;;;17.92;9.48;;;;;;;;;;5028615;28;20033;-82
2021/05/30 11:33:07;;;;;;;10.18;5.05;;;;;;;;;;5012879;28;20029;-82
2021/05/30 11:35:34;;;;;;;11.98;6.53;;;;;;;;;;5028579;28;20025;-84
2021/05/30 11:38:03;;;;;;;11.25;5.25;;;;;;;;;;5030980;28;20540;-86
2021/05/30 11:41:04;;;;;;;7.32;3.00;;;;;;;;;;5034954;28;20048;-87
2021/05/30 11:43:30;;;;;;;5.85;1.80;;;;;;;;;;5019195;28;20076;-89
2021/05/30 11:52:02;;;;;;;6.13;1.85;;;;;;;;;;5034438;28;20067;-80
2021/05/30 11:54:29;;;;;;;5.45;1.85;;;;;;;;;;5001797;28;20041;-80
2021/05/30 11:57:00;;;;;;;7.22;1.85;;;;;;;;;;5032086;28;20059;-84
2021/05/30 11:59:27;;;;;;;7.38;2.13;;;;;;;;;;5010755;28;20393;-83
2021/05/30 12:01:54;;;;;;;7.22;2.13;;;;;;;;;;5019778;28;20032;-78
2021/05/30 12:04:35;;;;;;;6.35;1.90;;;;;;;;;;5003160;28;20041;-79
2021/05/30 12:07:04;;;;;;;6.60;2.17;;;;;;;;;;5027809;28;20120;-78
2021/05/30 12:09:58;;;;;;;9.80;4.60;;;;;;;;;;5039831;28;20036;-84
2021/05/30 12:12:44;;;;;;;9.73;5.13;;;;;;;;;;5011819;28;20558;-82
2021/05/30 12:15:17;;;;;;;11.15;5.35;;;;;;;;;;5027897;28;20160;-83
2021/05/30 12:18:02;;;;;;;12.05;7.22;;;;;;;;;;5031434;28;20386;-84
2021/05/30 12:20:38;;;;;;;11.15;4.80;;;;;;;;;;5032703;28;20659;-77
2021/05/30 12:23:16;;;;;;;13.68;8.52;;;;;;;;;;5039691;28;20029;-84
2021/05/30 12:26:24;;;;;;;8.93;3.90;;;;;;;;;;5020282;28;20674;-83
2021/05/30 12:28:51;;;;;;;6.55;2.40;;;;;;;;;;5017820;28;20645;-83
2021/05/30 12:31:21;;;;;;;10.88;6.22;;;;;;;;;;5019704;28;20051;-78
2021/05/30 12:33:55;;;;;;;13.27;5.75;;;;;;;;;;5015004;28;20044;-80
2021/05/30 12:36:34;;;;;;;9.80;4.78;;;;;;;;;;5014302;28;20082;-80
2021/05/30 12:39:13;;;;;;;21.00;12.75;;;;;;;;;;5012552;28;20022;-85
2021/05/30 12:41:45;;;;;;;14.10;9.40;;;;;;;;;;5015622;28;20144;-84
2021/05/30 12:44:36;;;;;;;6.60;2.70;;;;;;;;;;5026612;28;20054;-85
2021/05/30 12:47:15;;;;;;;5.43;1.70;;;;;;;;;;5016513;28;20561;-85
2021/05/30 12:49:55;;;;;;;5.57;1.48;;;;;;;;;;5026376;28;20041;-79
2021/05/30 12:52:23;;;;;;;7.18;1.80;;;;;;;;;;5018569;28;20048;-83
2021/05/30 12:54:58;;;;;;;6.78;2.20;;;;;;;;;;5031604;28;20017;-87
2021/05/30 12:57:43;;;;;;;7.72;1.70;;;;;;;;;;5029014;28;20044;-84
2021/05/30 13:00:13;;;;;;;6.57;1.70;;;;;;;;;;5017687;28;20474;-78
2021/05/30 13:02:43;;;;;;;4.95;1.80;;;;;;;;;;5007620;28;20025;-78
2021/05/30 13:05:10;;;;;;;5.55;1.50;;;;;;;;;;5027588;28;20049;-86
2021/05/30 13:07:39;;;;;;;4.45;1.50;;;;;;;;;;5037784;28;20363;-86
2021/05/30 13:10:09;;;;;;;5.53;1.60;;;;;;;;;;5020969;28;20026;-85
2021/05/30 13:12:44;;;;;;;6.05;1.50;;;;;;;;;;4992824;28;21185;-80
2021/05/30 13:15:24;;;;;;;5.95;1.70;;;;;;;;;;5013142;28;20029;-79
2021/05/30 13:17:58;;;;;;;4.85;1.30;;;;;;;;;;5007338;28;20367;-79
2021/05/30 13:20:25;;;;;;;4.37;1.40;;;;;;;;;;5023372;28;20021;-86
2021/05/30 13:25:39;;;;;;;5.15;1.55;;;;;;;;;;5026558;28;20132;-79
2021/05/30 13:28:26;;;;;;;6.65;1.50;;;;;;;;;;5011771;28;20063;-79
2021/05/30 13:30:57;;;;;;;5.32;1.38;;;;;;;;;;5026716;28;20029;-80
2021/05/30 13:33:24;;;;;;;4.43;1.40;;;;;;;;;;5027748;28;20029;-85
2021/05/30 13:35:51;;;;;;;4.88;1.30;;;;;;;;;;5036084;28;20027;-86
2021/05/30 13:38:18;;;;;;;6.53;1.60;;;;;;;;;;5025061;28;20032;-78
2021/05/30 13:40:50;;;;;;;4.90;1.30;;;;;;;;;;5026129;28;20583;-85
2021/05/30 13:43:17;;;;;;;5.35;1.40;;;;;;;;;;5025668;28;20029;-79
2021/05/30 13:45:44;;;;;;;6.53;1.65;;;;;;;;;;5025971;28;20028;-78
2021/05/30 13:48:36;;;;;;;5.03;1.30;;;;;;;;;;5019596;28;20028;-79
2021/05/30 13:51:13;;;;;;;9.38;1.40;;;;;;;;;;5024651;28;20477;-78
2021/05/30 13:53:44;;;;;;;6.85;1.25;;;;;;;;;;5004931;28;20868;-77
2021/05/30 13:59:05;;;;;;;4.88;1.30;;;;;;;;;;5023408;28;20036;-77
2021/05/30 14:01:31;;;;;;;6.38;1.63;;;;;;;;;;5021338;28;20078;-77
2021/05/30 14:04:00;;;;;;;5.50;1.20;;;;;;;;;;5019538;28;20033;-77
2021/05/30 14:06:46;;;;;;;5.95;1.20;;;;;;;;;;5022804;28;20139;-78
2021/05/30 14:09:33;;;;;;;5.50;1.30;;;;;;;;;;4999927;28;20041;-77
2021/05/30 14:11:59;;;;;;;7.43;1.60;;;;;;;;;;4998764;28;20045;-77
2021/05/30 14:14:25;;;;;;;5.80;1.25;;;;;;;;;;4980572;28;20045;-77
2021/05/30 14:16:52;;;;;;;4.85;1.35;;;;;;;;;;4995052;28;20033;-79
2021/05/30 14:19:19;;;;;;;5.95;1.30;;;;;;;;;;5000534;28;20123;-78
2021/05/30 14:22:11;;;;;;;4.10;1.30;;;;;;;;;;4996255;28;20034;-77
2021/05/30 14:24:37;;;;;;;4.78;1.50;;;;;;;;;;4996218;28;20111;-78
2021/05/30 14:27:04;;;;;;;5.10;1.50;;;;;;;;;;4983505;28;20036;-78
2021/05/30 14:29:30;;;;;;;4.97;1.45;;;;;;;;;;4977425;28;20037;-78
2021/05/30 14:31:57;;;;;;;5.97;1.58;;;;;;;;;;4992001;28;20039;-77
2021/05/30 14:34:24;;;;;;;5.90;1.70;;;;;;;;;;4999773;28;20041;-86
2021/05/30 14:36:50;;;;;;;7.35;1.70;;;;;;;;;;5015982;28;20092;-86
2021/05/30 14:39:17;;;;;;;7.57;1.50;;;;;;;;;;5016688;28;20086;-85
2021/05/30 14:41:43;;;;;;;4.68;1.50;;;;;;;;;;5028949;28;20427;-86
2021/05/30 14:44:10;;;;;;;5.13;1.38;;;;;;;;;;5040092;28;20041;-85
2021/05/30 14:46:37;;;;;;;3.13;1.10;;;;;;;;;;5041862;28;20040;-85
2021/05/30 14:49:04;;;;;;;5.22;1.50;;;;;;;;;;5047801;28;20025;-85
2021/05/30 14:51:34;;;;;;;5.25;1.48;;;;;;;;;;5045199;28;20059;-85
2021/05/30 14:54:02;;;;;;;5.60;1.60;;;;;;;;;;5046222;28;20531;-84
2021/05/30 14:56:37;;;;;;;4.45;1.35;;;;;;;;;;5046368;28;20036;-83
2021/05/30 14:59:05;;;;;;;5.45;1.65;;;;;;;;;;5047117;28;20075;-83
2021/05/30 15:04:25;;;;;;;4.30;1.40;;;;;;;;;;5053978;28;20070;-85
2021/05/30 15:06:52;;;;;;;5.90;1.50;;;;;;;;;;5046880;28;20028;-86
2021/05/30 15:09:21;;;;;;;5.10;1.40;;;;;;;;;;5028063;28;20025;-80
2021/05/30 15:11:48;;;;;;;5.45;1.50;;;;;;;;;;5028279;28;20029;-83
2021/05/30 15:14:14;;;;;;;4.35;1.42;;;;;;;;;;5016956;28;20047;-86
2021/05/30 15:16:41;;;;;;;5.00;1.33;;;;;;;;;;5030452;28;20036;-79
2021/05/30 15:19:07;;;;;;;4.82;1.45;;;;;;;;;;5027359;28;20029;-79
2021/05/30 15:21:34;;;;;;;6.18;1.60;;;;;;;;;;5022568;28;20481;-79
2021/05/30 15:24:02;;;;;;;5.45;1.60;;;;;;;;;;5029394;28;20033;-78
2021/05/30 15:26:29;;;;;;;5.97;1.50;;;;;;;;;;5018802;28;21373;-79
2021/05/30 15:28:57;;;;;;;5.78;1.65;;;;;;;;;;5019935;28;20056;-80
2021/05/30 15:31:24;;;;;;;5.13;1.50;;;;;;;;;;5019480;28;20035;-79